createdAt,value
2023-03-10T00:00:41.104Z,15.16
2023-03-10T00:03:09.009Z,15.14
2023-03-10T00:05:39.987Z,15.25
2023-03-10T00:08:08.526Z,15.16
2023-03-10T00:10:37.033Z,15.17
2023-03-10T00:13:05.165Z,15.17
2023-03-10T00:15:33.210Z,15.02
2023-03-10T00:18:01.242Z,15.05
2023-03-10T00:20:29.207Z,15.21
2023-03-10T00:22:58.597Z,14.92
2023-03-10T00:25:26.633Z,15.16
2023-03-10T00:27:54.654Z,14.78
2023-03-10T00:30:23.944Z,14.75
2023-03-10T00:32:51.953Z,14.77
2023-03-10T00:35:19.877Z,14.86
2023-03-10T00:37:47.941Z,14.80
2023-03-10T00:40:19.185Z,15.15
2023-03-10T00:42:47.254Z,15.16
2023-03-10T00:45:15.196Z,15.03
2023-03-10T00:47:43.293Z,15.13
2023-03-10T00:50:12.768Z,14.92
2023-03-10T00:52:40.794Z,14.92
2023-03-10T00:55:09.412Z,14.94
2023-03-10T00:57:39.248Z,14.92
2023-03-10T01:00:08.861Z,15.07
2023-03-10T01:02:36.859Z,14.77
2023-03-10T01:05:05.241Z,14.76
2023-03-10T01:07:33.999Z,15.13
2023-03-10T01:10:01.926Z,15.07
2023-03-10T01:12:29.946Z,14.78
2023-03-10T01:14:59.294Z,14.90
2023-03-10T01:17:27.357Z,14.77
2023-03-10T01:19:55.325Z,14.62
2023-03-10T01:22:23.254Z,15.00
2023-03-10T01:24:52.262Z,14.94
2023-03-10T01:27:20.382Z,14.65
2023-03-10T01:29:48.280Z,14.95
2023-03-10T01:32:18.332Z,14.64
2023-03-10T01:34:46.456Z,14.83
2023-03-10T01:37:14.373Z,15.08
2023-03-10T01:39:43.203Z,14.68
2023-03-10T01:42:11.164Z,14.68
2023-03-10T01:44:39.395Z,14.90
2023-03-10T01:47:07.405Z,15.04
2023-03-10T01:49:41.105Z,14.81
2023-03-10T01:52:13.762Z,14.78
2023-03-10T01:54:49.505Z,15.07
2023-03-10T01:57:20.298Z,14.79
2023-03-10T01:59:48.710Z,14.62
2023-03-10T02:02:17.161Z,15.09
2023-03-10T02:04:49.569Z,14.91
2023-03-10T02:07:25.781Z,14.75
2023-03-10T02:09:55.488Z,14.61
2023-03-10T02:12:23.454Z,14.63
2023-03-10T02:14:53.727Z,14.71
2023-03-10T02:17:24.346Z,14.68
2023-03-10T02:20:06.858Z,14.58
2023-03-10T02:22:35.297Z,14.79
2023-03-10T02:25:15.402Z,14.93
2023-03-10T02:27:45.197Z,14.87
2023-03-10T02:30:17.546Z,15.08
2023-03-10T02:32:48.738Z,14.82
2023-03-10T02:35:17.300Z,14.76
2023-03-10T02:37:54.123Z,15.07
2023-03-10T02:40:34.767Z,14.90
2023-03-10T02:43:19.068Z,14.73
2023-03-10T02:45:51.650Z,15.01
2023-03-10T02:48:27.897Z,14.94
2023-03-10T02:50:57.703Z,14.66
2023-03-10T02:53:28.472Z,15.06
2023-03-10T02:55:57.527Z,14.86
2023-03-10T02:58:29.946Z,15.06
2023-03-10T03:00:58.370Z,15.00
2023-03-10T03:03:26.788Z,15.02
2023-03-10T03:05:55.043Z,14.69
2023-03-10T03:08:23.097Z,14.98
2023-03-10T03:10:52.824Z,14.76
2023-03-10T03:13:21.500Z,14.72
2023-03-10T03:15:51.520Z,15.04
2023-03-10T03:18:19.752Z,14.74
2023-03-10T03:20:47.960Z,14.70
2023-03-10T03:23:16.257Z,14.73
2023-03-10T03:25:44.592Z,15.07
2023-03-10T03:28:15.912Z,14.55
2023-03-10T03:30:46.851Z,15.12
2023-03-10T03:33:16.822Z,15.18
2023-03-10T03:35:46.237Z,14.77
2023-03-10T03:38:16.563Z,14.89
2023-03-10T03:40:45.540Z,14.83
2023-03-10T03:43:15.837Z,15.07
2023-03-10T03:45:45.031Z,15.10
2023-03-10T03:48:14.819Z,14.96
2023-03-10T03:50:45.051Z,14.90
2023-03-10T03:53:22.613Z,15.17
2023-03-10T03:55:51.288Z,15.25
2023-03-10T03:58:21.786Z,14.79
2023-03-10T04:00:51.885Z,15.17
2023-03-10T04:03:20.474Z,15.35
2023-03-10T04:05:50.800Z,15.15
2023-03-10T04:08:20.856Z,15.03
2023-03-10T04:10:54.546Z,14.98
2023-03-10T04:13:25.992Z,14.92
2023-03-10T04:15:56.700Z,15.14
2023-03-10T04:18:25.569Z,15.27
2023-03-10T04:20:54.978Z,14.97
2023-03-10T04:23:23.019Z,14.86
2023-03-10T04:25:51.191Z,14.89
2023-03-10T04:28:19.741Z,15.11
2023-03-10T04:30:49.757Z,15.06
2023-03-10T04:33:20.349Z,15.14
2023-03-10T04:35:51.439Z,15.29
2023-03-10T04:38:24.073Z,15.04
2023-03-10T04:40:56.762Z,15.02
2023-03-10T04:43:28.660Z,15.48
2023-03-10T04:45:57.784Z,15.40
2023-03-10T04:48:26.289Z,15.30
2023-03-10T04:50:57.705Z,15.34
2023-03-10T04:53:28.853Z,15.48
2023-03-10T04:55:57.608Z,15.52
2023-03-10T04:58:25.700Z,15.29
2023-03-10T05:01:02.726Z,15.39
2023-03-10T05:03:35.266Z,15.19
2023-03-10T05:06:03.508Z,15.25
2023-03-10T05:08:33.052Z,14.99
2023-03-10T05:11:01.201Z,14.99
2023-03-10T05:13:31.740Z,15.12
2023-03-10T05:16:00.569Z,15.14
2023-03-10T05:18:28.606Z,14.99
2023-03-10T05:20:58.726Z,15.10
2023-03-10T05:23:27.989Z,14.99
2023-03-10T05:25:57.890Z,15.49
2023-03-10T05:28:27.556Z,15.19
2023-03-10T05:30:55.729Z,15.40
2023-03-10T05:33:23.796Z,15.46
2023-03-10T05:35:52.643Z,15.26
2023-03-10T05:38:20.722Z,15.16
2023-03-10T05:40:48.920Z,15.49
2023-03-10T05:43:18.392Z,15.44
2023-03-10T05:45:46.942Z,15.34
2023-03-10T05:48:14.864Z,15.38
2023-03-10T05:50:42.902Z,15.17
2023-03-10T05:53:10.910Z,15.32
2023-03-10T05:55:39.148Z,15.40
2023-03-10T05:58:07.205Z,15.49
2023-03-10T06:00:36.692Z,15.39
2023-03-10T06:03:04.819Z,15.02
2023-03-10T06:05:32.917Z,15.32
2023-03-10T06:08:01.095Z,15.16
2023-03-10T06:10:29.223Z,15.38
2023-03-10T06:12:57.493Z,15.37
2023-03-10T06:15:25.613Z,15.39
2023-03-10T06:17:54.879Z,15.09
2023-03-10T06:20:22.852Z,15.23
2023-03-10T06:22:52.348Z,15.25
2023-03-10T06:25:20.655Z,15.21
2023-03-10T06:27:49.044Z,15.34
2023-03-10T06:30:17.516Z,15.37
2023-03-10T06:32:45.658Z,15.26
2023-03-10T06:35:16.551Z,15.08
2023-03-10T06:37:44.610Z,15.56
2023-03-10T06:40:15.093Z,15.27
2023-03-10T06:42:43.690Z,15.41
2023-03-10T06:45:16.077Z,15.05
2023-03-10T06:47:44.097Z,15.57
2023-03-10T06:50:15.288Z,15.28
2023-03-10T06:52:43.304Z,15.58
2023-03-10T06:55:13.754Z,15.41
2023-03-10T06:57:42.162Z,15.42
2023-03-10T07:00:15.649Z,15.46
2023-03-10T07:02:43.762Z,15.78
2023-03-10T07:05:13.892Z,15.30
2023-03-10T07:07:43.321Z,15.69
2023-03-10T07:10:12.578Z,15.74
2023-03-10T07:12:40.488Z,15.17
2023-03-10T07:15:09.836Z,15.39
2023-03-10T07:17:37.824Z,15.52
2023-03-10T07:20:06.844Z,15.54
2023-03-10T07:22:34.720Z,15.46
2023-03-10T07:25:05.006Z,15.29
2023-03-10T07:27:32.993Z,15.51
2023-03-10T07:30:01.119Z,15.57
2023-03-10T07:32:29.174Z,15.24
2023-03-10T07:34:57.083Z,15.46
2023-03-10T07:37:25.319Z,15.21
2023-03-10T07:39:55.038Z,15.47
2023-03-10T07:42:24.478Z,15.42
2023-03-10T07:44:52.474Z,15.43
2023-03-10T07:47:20.489Z,15.55
2023-03-10T07:49:48.672Z,15.58
2023-03-10T07:52:18.195Z,15.46
2023-03-10T07:54:46.973Z,15.45
2023-03-10T07:57:16.268Z,15.53
2023-03-10T07:59:45.755Z,15.42
2023-03-10T08:02:14.947Z,15.54
2023-03-10T08:04:43.504Z,15.45
2023-03-10T08:07:11.642Z,15.75
2023-03-10T08:09:41.453Z,15.66
2023-03-10T08:12:10.124Z,15.78
2023-03-10T08:14:38.105Z,15.69
2023-03-10T08:17:07.490Z,16.81
2023-03-10T08:19:35.415Z,17.17
2023-03-10T08:22:03.343Z,17.91
2023-03-10T08:24:31.320Z,18.02
2023-03-10T08:26:59.465Z,18.69
2023-03-10T08:29:27.433Z,19.38
2023-03-10T08:31:55.530Z,19.66
2023-03-10T08:34:25.286Z,19.99
2023-03-10T08:36:53.393Z,19.81
2023-03-10T08:39:21.566Z,19.60
2023-03-10T08:41:50.000Z,19.89
2023-03-10T08:44:18.638Z,19.76
2023-03-10T08:46:48.906Z,19.45
2023-03-10T08:49:19.475Z,19.10
2023-03-10T08:51:49.301Z,19.22
2023-03-10T08:54:19.322Z,19.09
2023-03-10T08:56:47.525Z,18.91
2023-03-10T08:59:15.662Z,19.03
2023-03-10T09:01:43.725Z,18.64
2023-03-10T09:04:12.164Z,18.54
2023-03-10T09:06:40.771Z,18.64
2023-03-10T09:09:11.632Z,18.53
2023-03-10T09:11:41.491Z,18.18
2023-03-10T09:14:11.103Z,19.05
2023-03-10T09:16:40.739Z,20.09
2023-03-10T09:19:08.911Z,20.84
2023-03-10T09:21:37.112Z,21.69
2023-03-10T09:24:05.446Z,22.71
2023-03-10T09:26:35.480Z,23.10
2023-03-10T09:29:04.491Z,23.30
2023-03-10T09:31:34.665Z,23.73
2023-03-10T09:34:03.104Z,23.45
2023-03-10T09:36:31.103Z,24.06
2023-03-10T09:39:00.090Z,24.79
2023-03-10T09:41:46.262Z,27.28
2023-03-10T09:44:25.863Z,27.20
2023-03-10T09:47:14.304Z,26.34
2023-03-10T09:49:51.498Z,26.33
2023-03-10T09:52:25.236Z,26.08
2023-03-10T09:54:59.825Z,25.10
2023-03-10T09:57:31.545Z,24.48
2023-03-10T10:00:05.390Z,24.03
2023-03-10T10:02:37.454Z,23.55
2023-03-10T10:05:16.827Z,23.36
2023-03-10T10:07:50.219Z,23.08
2023-03-10T10:10:21.089Z,22.80
2023-03-10T10:12:53.917Z,22.24
2023-03-10T10:15:24.384Z,22.27
2023-03-10T10:18:16.111Z,22.05
2023-03-10T10:20:50.656Z,21.48
2023-03-10T10:23:22.522Z,21.95
2023-03-10T10:25:50.629Z,22.41
2023-03-10T10:28:30.229Z,22.06
2023-03-10T10:31:12.522Z,21.92
2023-03-10T10:33:55.322Z,21.69
2023-03-10T10:36:25.914Z,21.59
2023-03-10T10:38:56.279Z,21.92
2023-03-10T10:41:28.218Z,22.76
2023-03-10T10:44:00.487Z,23.19
2023-03-10T10:46:30.849Z,23.54
2023-03-10T10:49:09.063Z,23.08
2023-03-10T10:51:38.670Z,22.60
2023-03-10T10:54:23.937Z,22.14
2023-03-10T10:56:56.493Z,21.42
2023-03-10T10:59:30.567Z,20.83
2023-03-10T11:02:00.051Z,20.76
2023-03-10T11:04:29.933Z,20.30
2023-03-10T11:07:17.246Z,19.75
2023-03-10T11:09:45.411Z,19.89
2023-03-10T11:12:22.132Z,19.69
2023-03-10T11:15:07.478Z,19.26
2023-03-10T11:17:43.001Z,19.03
2023-03-10T11:20:23.216Z,18.96
2023-03-10T11:22:57.951Z,18.79
2023-03-10T11:25:31.491Z,18.43
2023-03-10T11:28:13.034Z,18.27
2023-03-10T11:30:50.834Z,18.55
2023-03-10T11:33:27.307Z,18.26
2023-03-10T11:36:01.239Z,18.03
2023-03-10T11:38:37.591Z,17.83
2023-03-10T11:41:09.425Z,17.96
2023-03-10T11:43:50.955Z,17.90
2023-03-10T11:46:26.351Z,18.13
2023-03-10T11:49:08.320Z,17.86
2023-03-10T11:51:39.875Z,17.67
2023-03-10T11:54:15.609Z,17.67
2023-03-10T11:56:43.952Z,17.32
2023-03-10T11:59:16.894Z,17.47
2023-03-10T12:01:51.784Z,17.41
2023-03-10T12:04:24.520Z,17.84
2023-03-10T12:06:58.653Z,17.79
2023-03-10T12:09:42.361Z,18.44
2023-03-10T12:12:16.679Z,18.60
2023-03-10T12:14:46.089Z,18.32
2023-03-10T12:17:17.661Z,18.81
2023-03-10T12:20:25.369Z,18.75
2023-03-10T12:22:54.345Z,18.74
2023-03-10T12:25:44.421Z,18.38
2023-03-10T12:28:14.452Z,18.10
2023-03-10T12:30:46.878Z,18.61
2023-03-10T12:33:44.118Z,18.70
2023-03-10T12:36:15.348Z,18.96
2023-03-10T12:38:47.340Z,18.94
2023-03-10T12:41:42.293Z,18.74
2023-03-10T12:44:43.388Z,18.68
2023-03-10T12:47:31.905Z,18.76
2023-03-10T12:50:06.336Z,18.99
2023-03-10T12:52:48.093Z,19.21
2023-03-10T12:55:19.869Z,19.30
2023-03-10T12:58:10.865Z,18.89
2023-03-10T13:00:49.030Z,18.76
2023-03-10T13:03:27.287Z,18.63
2023-03-10T13:06:03.140Z,20.20
2023-03-10T13:08:37.819Z,20.72
2023-03-10T13:11:07.529Z,20.10
2023-03-10T13:13:38.315Z,20.36
2023-03-10T13:16:08.413Z,20.05
2023-03-10T13:18:36.791Z,19.32
2023-03-10T13:21:06.424Z,19.35
2023-03-10T13:23:36.168Z,19.19
2023-03-10T13:26:07.223Z,18.92
2023-03-10T13:28:36.532Z,19.05
2023-03-10T13:31:19.416Z,19.01
2023-03-10T13:33:53.772Z,19.06
2023-03-10T13:36:32.828Z,19.19
2023-03-10T13:39:02.695Z,18.74
2023-03-10T13:41:37.143Z,18.83
2023-03-10T13:44:05.270Z,18.63
2023-03-10T13:46:34.861Z,19.05
2023-03-10T13:49:06.941Z,18.54
2023-03-10T13:51:37.667Z,18.45
2023-03-10T13:54:18.657Z,18.58
2023-03-10T13:56:48.229Z,18.45
2023-03-10T13:59:18.174Z,18.81
2023-03-10T14:01:49.898Z,19.03
2023-03-10T14:04:20.169Z,19.34
2023-03-10T14:07:08.578Z,18.81
2023-03-10T14:09:36.829Z,19.25
2023-03-10T14:12:05.218Z,18.99
2023-03-10T14:14:35.631Z,18.96
2023-03-10T14:17:05.611Z,18.83
2023-03-10T14:19:48.827Z,19.00
2023-03-10T14:22:35.703Z,18.75
2023-03-10T14:25:12.011Z,18.81
2023-03-10T14:27:42.516Z,19.08
2023-03-10T14:30:20.973Z,19.01
2023-03-10T14:32:49.194Z,18.58
2023-03-10T14:35:20.231Z,18.97
2023-03-10T14:37:49.796Z,19.03
2023-03-10T14:40:18.487Z,18.41
2023-03-10T14:42:48.483Z,18.52
2023-03-10T14:45:27.706Z,18.94
2023-03-10T14:47:58.024Z,19.34
2023-03-10T14:50:27.659Z,19.63
2023-03-10T14:52:57.305Z,20.14
2023-03-10T14:55:25.782Z,20.13
2023-03-10T14:57:59.651Z,20.19
2023-03-10T15:00:28.124Z,19.91
2023-03-10T15:02:56.136Z,19.56
2023-03-10T15:05:31.889Z,19.93
2023-03-10T15:08:07.562Z,19.54
2023-03-10T15:10:38.590Z,19.44
2023-03-10T15:13:06.853Z,19.20
2023-03-10T15:15:39.587Z,18.85
2023-03-10T15:18:08.112Z,18.82
2023-03-10T15:20:36.059Z,18.64
2023-03-10T15:23:03.982Z,19.00
2023-03-10T15:25:33.524Z,18.83
2023-03-10T15:28:01.500Z,18.39
2023-03-10T15:30:32.144Z,18.68
2023-03-10T15:33:00.249Z,18.12
2023-03-10T15:35:29.227Z,18.65
2023-03-10T15:37:58.026Z,18.26
2023-03-10T15:40:27.835Z,18.54
2023-03-10T15:42:57.806Z,18.34
2023-03-10T15:45:26.748Z,18.48
2023-03-10T15:47:54.694Z,18.41
2023-03-10T15:50:23.219Z,18.03
2023-03-10T15:52:53.033Z,17.94
2023-03-10T15:55:21.520Z,18.27
2023-03-10T15:57:50.226Z,18.06
2023-03-10T16:00:22.242Z,18.18
2023-03-10T16:02:51.217Z,18.12
2023-03-10T16:05:19.901Z,17.85
2023-03-10T16:07:47.970Z,17.77
2023-03-10T16:10:17.743Z,17.68
2023-03-10T16:12:45.937Z,17.67
2023-03-10T16:15:16.943Z,17.54
2023-03-10T16:17:47.246Z,17.69
2023-03-10T16:20:17.015Z,17.51
2023-03-10T16:22:44.987Z,17.89
2023-03-10T16:25:15.299Z,17.80
2023-03-10T16:27:43.359Z,17.75
2023-03-10T16:30:12.869Z,17.58
2023-03-10T16:32:40.879Z,17.34
2023-03-10T16:35:11.000Z,17.42
2023-03-10T16:37:39.012Z,17.60
2023-03-10T16:40:08.677Z,17.57
2023-03-10T16:42:36.805Z,17.29
2023-03-10T16:45:05.946Z,17.25
2023-03-10T16:47:34.431Z,17.71
2023-03-10T16:50:02.354Z,17.75
2023-03-10T16:52:31.670Z,17.44
2023-03-10T16:55:01.387Z,17.37
2023-03-10T16:57:29.425Z,17.32
2023-03-10T16:59:57.334Z,17.70
2023-03-10T17:02:25.285Z,17.25
2023-03-10T17:04:54.060Z,17.56
2023-03-10T17:07:22.038Z,17.46
2023-03-10T17:09:51.347Z,17.76
2023-03-10T17:12:19.405Z,17.40
2023-03-10T17:14:47.397Z,17.57
2023-03-10T17:17:15.553Z,17.54
2023-03-10T17:19:43.691Z,17.39
2023-03-10T17:22:11.712Z,17.34
2023-03-10T17:24:39.647Z,17.71
2023-03-10T17:27:08.960Z,17.49
2023-03-10T17:29:36.912Z,17.33
2023-03-10T17:32:05.090Z,17.51
2023-03-10T17:34:33.005Z,17.55
2023-03-10T17:37:01.231Z,17.43
2023-03-10T17:39:29.300Z,17.32
2023-03-10T17:41:57.438Z,17.28
2023-03-10T17:44:27.214Z,17.12
2023-03-10T17:46:56.161Z,17.19
2023-03-10T17:49:24.056Z,17.34
2023-03-10T17:51:52.093Z,17.22
2023-03-10T17:54:21.988Z,17.12
2023-03-10T17:56:51.056Z,17.33
2023-03-10T17:59:19.205Z,17.34
2023-03-10T18:01:49.582Z,17.10
2023-03-10T18:04:17.915Z,16.92
2023-03-10T18:06:45.963Z,17.01
2023-03-10T18:09:15.490Z,16.98
2023-03-10T18:11:43.657Z,17.07
2023-03-10T18:14:11.602Z,17.11
2023-03-10T18:16:41.005Z,17.21
2023-03-10T18:19:11.588Z,16.99
2023-03-10T18:21:39.932Z,16.92
2023-03-10T18:24:08.798Z,17.13
2023-03-10T18:26:38.052Z,17.11
2023-03-10T18:29:06.062Z,16.94
2023-03-10T18:31:35.205Z,16.80
2023-03-10T18:34:04.508Z,16.95
2023-03-10T18:36:34.265Z,17.07
2023-03-10T18:39:03.964Z,16.97
2023-03-10T18:41:32.748Z,16.93
2023-03-10T18:44:01.078Z,16.69
2023-03-10T18:46:29.316Z,16.87
2023-03-10T18:48:57.499Z,16.79
2023-03-10T18:51:26.508Z,16.83
2023-03-10T18:53:56.577Z,17.17
2023-03-10T18:56:25.994Z,17.18
2023-03-10T18:58:53.992Z,17.76
2023-03-10T19:01:23.009Z,18.72
2023-03-10T19:03:51.044Z,19.13
2023-03-10T19:06:19.200Z,18.96
2023-03-10T19:08:47.295Z,19.04
2023-03-10T19:11:17.173Z,18.68
2023-03-10T19:13:45.083Z,18.34
2023-03-10T19:16:13.480Z,18.47
2023-03-10T19:18:41.617Z,18.37
2023-03-10T19:21:12.941Z,18.27
2023-03-10T19:23:41.554Z,17.94
2023-03-10T19:26:10.036Z,18.04
2023-03-10T19:28:39.362Z,17.71
2023-03-10T19:31:11.686Z,17.80
2023-03-10T19:33:39.879Z,17.82
2023-03-10T19:36:12.006Z,17.81
2023-03-10T19:38:40.849Z,17.50
2023-03-10T19:41:13.526Z,17.36
2023-03-10T19:43:43.766Z,17.72
2023-03-10T19:46:13.642Z,17.37
2023-03-10T19:48:42.099Z,17.58
2023-03-10T19:51:10.695Z,17.76
2023-03-10T19:53:38.714Z,18.10
2023-03-10T19:56:08.582Z,17.78
2023-03-10T19:58:38.091Z,17.82
2023-03-10T20:01:13.421Z,17.56
2023-03-10T20:03:41.596Z,17.72
2023-03-10T20:06:09.822Z,17.49
2023-03-10T20:08:38.080Z,17.30
2023-03-10T20:11:06.245Z,17.27
2023-03-10T20:13:35.694Z,17.47
2023-03-10T20:16:04.232Z,17.15
2023-03-10T20:18:33.577Z,17.15
2023-03-10T20:21:03.036Z,17.42
2023-03-10T20:23:30.950Z,17.44
2023-03-10T20:26:02.194Z,17.24
2023-03-10T20:28:30.668Z,17.33
2023-03-10T20:30:58.537Z,17.26
2023-03-10T20:33:26.832Z,17.39
2023-03-10T20:35:56.892Z,17.01
2023-03-10T20:38:24.895Z,17.45
2023-03-10T20:40:52.812Z,17.15
2023-03-10T20:43:21.001Z,17.42
2023-03-10T20:45:52.419Z,17.16
2023-03-10T20:48:20.430Z,17.84
2023-03-10T20:50:56.579Z,17.50
2023-03-10T20:53:24.573Z,17.70
2023-03-10T20:55:52.972Z,17.51
2023-03-10T20:58:22.183Z,17.42
2023-03-10T21:00:50.149Z,17.62
2023-03-10T21:03:18.182Z,17.49
2023-03-10T21:05:46.084Z,17.15
2023-03-10T21:08:15.489Z,17.29
2023-03-10T21:10:44.593Z,17.41
2023-03-10T21:13:12.656Z,17.02
2023-03-10T21:15:40.816Z,16.84
2023-03-10T21:18:08.859Z,16.89
2023-03-10T21:20:36.798Z,16.98
2023-03-10T21:23:04.769Z,16.91
2023-03-10T21:25:34.153Z,16.51
2023-03-10T21:28:02.221Z,16.71
2023-03-10T21:30:33.546Z,16.40
2023-03-10T21:33:01.637Z,16.67
2023-03-10T21:35:34.128Z,16.36
2023-03-10T21:38:02.127Z,16.59
2023-03-10T21:40:30.265Z,16.32
2023-03-10T21:43:02.482Z,16.17
2023-03-10T21:45:33.374Z,16.55
2023-03-10T21:48:03.062Z,16.40
2023-03-10T21:50:31.123Z,16.38
2023-03-10T21:52:59.448Z,16.19
2023-03-10T21:55:28.698Z,16.12
2023-03-10T21:57:56.649Z,16.20
2023-03-10T22:00:26.856Z,15.87
2023-03-10T22:02:54.941Z,16.20
2023-03-10T22:05:22.898Z,16.06
2023-03-10T22:07:51.494Z,15.69
2023-03-10T22:10:19.712Z,15.79
2023-03-10T22:12:48.033Z,15.97
2023-03-10T22:15:19.624Z,15.61
2023-03-10T22:17:49.265Z,15.99
2023-03-10T22:20:20.487Z,16.03
2023-03-10T22:22:48.674Z,15.99
2023-03-10T22:25:17.045Z,15.82
2023-03-10T22:27:46.076Z,15.84
2023-03-10T22:30:15.085Z,15.68
2023-03-10T22:32:43.261Z,15.61
2023-03-10T22:35:12.784Z,15.61
2023-03-10T22:37:41.386Z,15.65
2023-03-10T22:40:13.193Z,15.63
2023-03-10T22:42:41.262Z,15.59
2023-03-10T22:45:16.587Z,15.41
2023-03-10T22:47:44.547Z,15.79
2023-03-10T22:50:16.050Z,15.56
2023-03-10T22:52:44.129Z,15.70
2023-03-10T22:55:15.460Z,15.54
2023-03-10T22:57:43.367Z,15.31
2023-03-10T23:00:15.271Z,15.36
2023-03-10T23:02:43.391Z,15.29
2023-03-10T23:05:13.499Z,15.14
2023-03-10T23:07:41.424Z,15.18
2023-03-10T23:10:11.402Z,14.98
2023-03-10T23:12:40.578Z,15.26
2023-03-10T23:15:15.370Z,14.97
2023-03-10T23:17:50.504Z,14.84
2023-03-10T23:20:20.089Z,14.85
2023-03-10T23:22:48.400Z,15.17
2023-03-10T23:25:18.476Z,14.82
2023-03-10T23:27:46.442Z,15.01
2023-03-10T23:30:15.909Z,15.21
2023-03-10T23:32:45.349Z,14.87
2023-03-10T23:35:14.564Z,15.14
2023-03-10T23:37:43.820Z,15.05
2023-03-10T23:40:15.323Z,14.84
2023-03-10T23:42:43.898Z,14.69
2023-03-10T23:45:14.678Z,14.95
2023-03-10T23:47:44.235Z,14.93
2023-03-10T23:50:17.852Z,14.80
2023-03-10T23:52:47.638Z,14.87
2023-03-10T23:55:17.090Z,15.12
2023-03-10T23:57:45.232Z,14.83
